PWSweather.com
Personal Weather Stations
Station Observations
KB2SBX
Sugarloaf, Sugarloaf, PA 18249

SugarloafSugarloaf, PA 18249

Lat: 41.0126685, Lon: -76.1082041

Elevation: 1030

Station Type: WS-2080

http://sugarloafpaweather.webng.com/weather.shtml

High Low Average
Temperature 33.8°F1.0°C 28.8°F-1.8°C 30.5°F-0.8°C
Dew Point 27.0°F-2.8°C 18.6°F-7.4°C 25.0°F-3.9°C
Winds 2.2 mph 3.5 kmh Calm Calm Calm ENECalm ENE
Wind Gusts 6.9 mph11.1 kmh -- 1.0 mph1.6 kmh
Humidity 88% 56% 80%
Pressure 29.89 in1012.2 mb 29.55 in1000.7 mb -
Precipitation 0.01 in0.3 mm - -
Hour Temp Dew Point Humidity Winds Wind Gusts Pressure Precip Precip Rate Daily Precip Total
12:00 AM 30.0°F-1.1°C 23.7°F-4.6°C 77% Calm Calm -- 29.84 in1010.5 mb 0.00 in0.0 mm 0.00 in/hr0.0 mm/hr 0.00 in0.0 mm
12:15 AM 29.8°F-1.2°C 24.1°F-4.4°C 79% Calm Calm -- 29.82 in1009.8 mb 0.00 in0.0 mm 0.00 in/hr0.0 mm/hr 0.00 in0.0 mm
12:30 AM 29.8°F-1.2°C 24.4°F-4.2°C 80% Calm Calm -- 29.82 in1009.8 mb 0.00 in0.0 mm 0.00 in/hr0.0 mm/hr 0.00 in0.0 mm
12:45 AM 29.7°F-1.3°C 24.3°F-4.3°C 80% Calm Calm -- 29.81 in1009.5 mb 0.00 in0.0 mm 0.00 in/hr0.0 mm/hr 0.00 in0.0 mm
01:00 AM 29.7°F-1.3°C 24.6°F-4.1°C 81% Calm Calm -- 29.81 in1009.5 mb 0.00 in0.0 mm 0.00 in/hr0.0 mm/hr 0.00 in0.0 mm
01:15 AM 29.7°F-1.3°C 24.9°F-3.9°C 82% Calm Calm 0.7 mph1.1 kmh 29.81 in1009.5 mb 0.00 in0.0 mm 0.00 in/hr0.0 mm/hr 0.00 in0.0 mm
01:30 AM 29.7°F-1.3°C 25.2°F-3.8°C 83% Calm Calm -- 29.80 in1009.1 mb 0.00 in0.0 mm 0.00 in/hr0.0 mm/hr 0.00 in0.0 mm
01:45 AM 29.5°F-1.4°C 25.0°F-3.9°C 83% Calm Calm -- 29.80 in1009.1 mb 0.00 in0.0 mm 0.00 in/hr0.0 mm/hr 0.00 in0.0 mm
02:00 AM 29.5°F-1.4°C 25.0°F-3.9°C 83% Calm Calm -- 29.80 in1009.1 mb 0.00 in0.0 mm 0.00 in/hr0.0 mm/hr 0.00 in0.0 mm
02:15 AM 29.3°F-1.5°C 24.8°F-4.0°C 83% Calm Calm -- 29.79 in1008.8 mb 0.00 in0.0 mm 0.00 in/hr0.0 mm/hr 0.00 in0.0 mm
02:30 AM 29.3°F-1.5°C 25.1°F-3.8°C 84% Calm Calm -- 29.79 in1008.8 mb 0.00 in0.0 mm 0.00 in/hr0.0 mm/hr 0.00 in0.0 mm
02:45 AM 29.1°F-1.6°C 24.9°F-3.9°C 84% Calm Calm -- 29.79 in1008.8 mb 0.00 in0.0 mm 0.00 in/hr0.0 mm/hr 0.00 in0.0 mm
03:00 AM 29.1°F-1.6°C 24.9°F-3.9°C 84% Calm Calm -- 29.77 in1008.1 mb 0.00 in0.0 mm 0.00 in/hr0.0 mm/hr 0.00 in0.0 mm
03:15 AM 29.1°F-1.6°C 24.9°F-3.9°C 84% Calm Calm -- 29.77 in1008.1 mb 0.00 in0.0 mm 0.00 in/hr0.0 mm/hr 0.00 in0.0 mm
03:30 AM 29.1°F-1.6°C 24.9°F-3.9°C 84% Calm Calm -- 29.77 in1008.1 mb 0.00 in0.0 mm 0.00 in/hr0.0 mm/hr 0.00 in0.0 mm
03:45 AM 29.1°F-1.6°C 24.9°F-3.9°C 84% Calm Calm -- 29.76 in1007.8 mb 0.00 in0.0 mm 0.00 in/hr0.0 mm/hr 0.00 in0.0 mm
04:00 AM 28.9°F-1.7°C 25.0°F-3.9°C 85% Calm Calm -- 29.75 in1007.5 mb 0.00 in0.0 mm 0.00 in/hr0.0 mm/hr 0.00 in0.0 mm
04:15 AM 28.9°F-1.7°C 25.0°F-3.9°C 85% Calm Calm -- 29.75 in1007.5 mb 0.00 in0.0 mm 0.00 in/hr0.0 mm/hr 0.00 in0.0 mm
04:30 AM 28.9°F-1.7°C 25.0°F-3.9°C 85% Calm Calm -- 29.74 in1007.1 mb 0.00 in0.0 mm 0.00 in/hr0.0 mm/hr 0.00 in0.0 mm
04:45 AM 28.9°F-1.7°C 25.0°F-3.9°C 85% Calm Calm -- 29.74 in1007.1 mb 0.00 in0.0 mm 0.00 in/hr0.0 mm/hr 0.00 in0.0 mm
05:00 AM 29.1°F-1.6°C 25.5°F-3.6°C 86% Calm Calm -- 29.73 in1006.8 mb 0.00 in0.0 mm 0.00 in/hr0.0 mm/hr 0.00 in0.0 mm
05:15 AM 29.1°F-1.6°C 25.5°F-3.6°C 86% Calm Calm -- 29.73 in1006.8 mb 0.00 in0.0 mm 0.00 in/hr0.0 mm/hr 0.00 in0.0 mm
05:30 AM 28.9°F-1.7°C 25.3°F-3.7°C 86% Calm Calm 0.7 mph1.1 kmh 29.73 in1006.8 mb 0.00 in0.0 mm 0.00 in/hr0.0 mm/hr 0.00 in0.0 mm
05:45 AM 28.9°F-1.7°C 25.3°F-3.7°C 86% Calm Calm 1.6 mph2.6 kmh 29.71 in1006.1 mb 0.00 in0.0 mm 0.00 in/hr0.0 mm/hr 0.00 in0.0 mm
06:00 AM 28.9°F-1.7°C 25.6°F-3.6°C 87% 0.1 mph SE0.2 kmh SE 1.6 mph2.6 kmh 29.72 in1006.4 mb 0.00 in0.0 mm 0.00 in/hr0.0 mm/hr 0.00 in0.0 mm
06:15 AM 28.9°F-1.7°C 25.6°F-3.6°C 87% Calm Calm -- 29.72 in1006.4 mb 0.00 in0.0 mm 0.00 in/hr0.0 mm/hr 0.00 in0.0 mm
06:30 AM 28.9°F-1.7°C 25.6°F-3.6°C 87% Calm Calm -- 29.72 in1006.4 mb 0.00 in0.0 mm 0.00 in/hr0.0 mm/hr 0.00 in0.0 mm
06:45 AM 28.9°F-1.7°C 25.6°F-3.6°C 87% Calm Calm -- 29.72 in1006.4 mb 0.00 in0.0 mm 0.00 in/hr0.0 mm/hr 0.00 in0.0 mm
07:00 AM 28.8°F-1.8°C 25.4°F-3.7°C 87% Calm Calm -- 29.72 in1006.4 mb 0.00 in0.0 mm 0.00 in/hr0.0 mm/hr 0.00 in0.0 mm
07:15 AM 28.9°F-1.7°C 25.6°F-3.6°C 87% Calm Calm -- 29.71 in1006.1 mb 0.00 in0.0 mm 0.00 in/hr0.0 mm/hr 0.00 in0.0 mm
07:30 AM 28.9°F-1.7°C 25.6°F-3.6°C 87% Calm Calm -- 29.71 in1006.1 mb 0.00 in0.0 mm 0.00 in/hr0.0 mm/hr 0.00 in0.0 mm
07:45 AM 29.1°F-1.6°C 25.8°F-3.4°C 87% Calm Calm -- 29.71 in1006.1 mb 0.00 in0.0 mm 0.00 in/hr0.0 mm/hr 0.00 in0.0 mm
08:00 AM 29.1°F-1.6°C 25.8°F-3.4°C 87% Calm Calm -- 29.71 in1006.1 mb 0.00 in0.0 mm 0.00 in/hr0.0 mm/hr 0.00 in0.0 mm
08:15 AM 29.3°F-1.5°C 26.2°F-3.2°C 88% Calm Calm -- 29.71 in1006.1 mb 0.00 in0.0 mm 0.00 in/hr0.0 mm/hr 0.00 in0.0 mm
08:30 AM 29.7°F-1.3°C 26.6°F-3.0°C 88% Calm Calm -- 29.71 in1006.1 mb 0.00 in0.0 mm 0.00 in/hr0.0 mm/hr 0.00 in0.0 mm
08:45 AM 29.8°F-1.2°C 26.7°F-2.9°C 88% Calm Calm -- 29.70 in1005.8 mb 0.00 in0.0 mm 0.00 in/hr0.0 mm/hr 0.00 in0.0 mm
09:00 AM 29.8°F-1.2°C 26.5°F-3.1°C 87% Calm Calm -- 29.71 in1006.1 mb 0.00 in0.0 mm 0.00 in/hr0.0 mm/hr 0.00 in0.0 mm
09:15 AM 30.0°F-1.1°C 26.6°F-3.0°C 87% Calm Calm -- 29.70 in1005.8 mb 0.00 in0.0 mm 0.00 in/hr0.0 mm/hr 0.00 in0.0 mm
09:30 AM 30.2°F-1.0°C 26.5°F-3.1°C 86% Calm Calm 1.6 mph2.6 kmh 29.70 in1005.8 mb 0.00 in0.0 mm 0.00 in/hr0.0 mm/hr 0.00 in0.0 mm
09:42 AM 30.4°F-0.9°C 26.7°F-2.9°C 86% Calm Calm -- 29.70 in1005.8 mb 0.00 in0.0 mm 0.00 in/hr0.0 mm/hr 0.00 in0.0 mm
09:51 AM 32.5°F0.3°C 18.6°F-7.4°C 56% Calm Calm -- 29.89 in1012.2 mb 0.00 in0.0 mm 0.00 in/hr0.0 mm/hr 0.00 in0.0 mm
10:00 AM 30.7°F-0.7°C 26.5°F-3.1°C 84% 0.3 mph ESE0.5 kmh ESE 2.2 mph3.5 kmh 29.69 in1005.4 mb 0.00 in0.0 mm 0.00 in/hr0.0 mm/hr 0.00 in0.0 mm
10:15 AM 30.9°F-0.6°C 26.4°F-3.1°C 83% Calm Calm 2.2 mph3.5 kmh 29.68 in1005.1 mb 0.00 in0.0 mm 0.00 in/hr0.0 mm/hr 0.00 in0.0 mm
10:30 AM 31.5°F-0.3°C 26.6°F-3.0°C 82% 0.4 mph NE0.6 kmh NE 3.1 mph5.0 kmh 29.68 in1005.1 mb 0.00 in0.0 mm 0.00 in/hr0.0 mm/hr 0.00 in0.0 mm
10:45 AM 31.5°F-0.3°C 26.0°F-3.3°C 80% 0.8 mph E1.3 kmh E 3.1 mph5.0 kmh 29.68 in1005.1 mb 0.01 in0.3 mm 0.04 in/hr1.0 mm/hr 0.01 in0.3 mm
11:00 AM 31.6°F-0.2°C 25.6°F-3.6°C 78% 0.2 mph NE0.3 kmh NE 3.1 mph5.0 kmh 29.67 in1004.7 mb 0.01 in0.3 mm 0.00 in/hr0.0 mm/hr 0.01 in0.3 mm
11:15 AM 32.2°F0.1°C 25.2°F-3.8°C 75% 0.6 mph NNW1.0 kmh NNW 3.1 mph5.0 kmh 29.66 in1004.4 mb 0.01 in0.3 mm 0.00 in/hr0.0 mm/hr 0.01 in0.3 mm
11:30 AM 32.4°F0.2°C 24.7°F-4.1°C 73% 0.4 mph WNW0.6 kmh WNW 2.2 mph3.5 kmh 29.66 in1004.4 mb 0.01 in0.3 mm 0.00 in/hr0.0 mm/hr 0.01 in0.3 mm
11:45 AM 32.7°F0.4°C 24.7°F-4.1°C 72% 0.4 mph NNE0.6 kmh NNE 3.1 mph5.0 kmh 29.65 in1004.1 mb 0.00 in0.0 mm 0.00 in/hr0.0 mm/hr 0.01 in0.3 mm
12:00 PM 33.1°F0.6°C 24.4°F-4.2°C 70% 1.4 mph N2.3 kmh N 6.9 mph11.1 kmh 29.64 in1003.7 mb 0.00 in0.0 mm 0.00 in/hr0.0 mm/hr 0.01 in0.3 mm
12:15 PM 33.3°F0.7°C 24.6°F-4.1°C 70% 1.1 mph N1.8 kmh N 3.1 mph5.0 kmh 29.62 in1003.0 mb 0.00 in0.0 mm 0.00 in/hr0.0 mm/hr 0.01 in0.3 mm
12:30 PM 33.3°F0.7°C 23.9°F-4.5°C 68% 0.7 mph N1.1 kmh N 6.0 mph9.7 kmh 29.61 in1002.7 mb 0.00 in0.0 mm 0.00 in/hr0.0 mm/hr 0.01 in0.3 mm
12:38 PM 30.4°F-0.9°C 26.7°F-2.9°C 86% Calm Calm 0.7 mph1.1 kmh 29.70 in1005.8 mb 0.00 in0.0 mm 0.00 in/hr0.0 mm/hr 0.01 in0.3 mm
12:45 PM 33.6°F0.9°C 24.6°F-4.1°C 69% 1.4 mph N2.3 kmh N 5.4 mph8.7 kmh 29.60 in1002.4 mb 0.00 in0.0 mm 0.00 in/hr0.0 mm/hr 0.01 in0.3 mm
01:00 PM 33.6°F0.9°C 23.9°F-4.5°C 67% 1.8 mph NW2.9 kmh NW 5.4 mph8.7 kmh 29.59 in1002.0 mb 0.00 in0.0 mm 0.00 in/hr0.0 mm/hr 0.01 in0.3 mm
01:15 PM 33.8°F1.0°C 24.4°F-4.2°C 68% 1.7 mph NW2.7 kmh NW 4.5 mph7.2 kmh 29.59 in1002.0 mb 0.00 in0.0 mm 0.00 in/hr0.0 mm/hr 0.01 in0.3 mm
01:30 PM 33.4°F0.8°C 24.4°F-4.2°C 69% 0.6 mph E1.0 kmh E 3.8 mph6.1 kmh 29.58 in1001.7 mb 0.00 in0.0 mm 0.00 in/hr0.0 mm/hr 0.01 in0.3 mm
01:45 PM 33.4°F0.8°C 24.7°F-4.1°C 70% 1.0 mph N1.6 kmh N 3.8 mph6.1 kmh 29.57 in1001.4 mb 0.00 in0.0 mm 0.00 in/hr0.0 mm/hr 0.01 in0.3 mm
02:00 PM 32.9°F0.5°C 24.9°F-3.9°C 72% 0.9 mph NE1.4 kmh NE 3.8 mph6.1 kmh 29.57 in1001.4 mb 0.00 in0.0 mm 0.00 in/hr0.0 mm/hr 0.01 in0.3 mm
02:15 PM 32.0°F0.0°C 24.7°F-4.1°C 74% 1.1 mph NNE1.8 kmh NNE 3.1 mph5.0 kmh 29.57 in1001.4 mb 0.00 in0.0 mm 0.00 in/hr0.0 mm/hr 0.01 in0.3 mm
02:30 PM 31.5°F-0.3°C 25.1°F-3.8°C 77% 0.7 mph NNW1.1 kmh NNW 3.1 mph5.0 kmh 29.57 in1001.4 mb 0.00 in0.0 mm 0.00 in/hr0.0 mm/hr 0.01 in0.3 mm
02:45 PM 31.3°F-0.4°C 25.5°F-3.6°C 79% 0.5 mph NE0.8 kmh NE 2.2 mph3.5 kmh 29.56 in1001.0 mb 0.00 in0.0 mm 0.00 in/hr0.0 mm/hr 0.01 in0.3 mm
03:00 PM 31.3°F-0.4°C 26.1°F-3.3°C 81% 0.2 mph NE0.3 kmh NE 2.2 mph3.5 kmh 29.56 in1001.0 mb 0.00 in0.0 mm 0.00 in/hr0.0 mm/hr 0.01 in0.3 mm
03:15 PM 31.3°F-0.4°C 26.4°F-3.1°C 82% 0.2 mph N0.3 kmh N 3.1 mph5.0 kmh 29.56 in1001.0 mb 0.00 in0.0 mm 0.00 in/hr0.0 mm/hr 0.01 in0.3 mm
03:30 PM 31.3°F-0.4°C 26.7°F-2.9°C 83% 0.6 mph NNW1.0 kmh NNW 3.1 mph5.0 kmh 29.56 in1001.0 mb 0.00 in0.0 mm 0.00 in/hr0.0 mm/hr 0.01 in0.3 mm
03:45 PM 31.3°F-0.4°C 26.7°F-2.9°C 83% 0.5 mph W0.8 kmh W 3.1 mph5.0 kmh 29.56 in1001.0 mb 0.00 in0.0 mm 0.00 in/hr0.0 mm/hr 0.01 in0.3 mm
04:00 PM 31.3°F-0.4°C 27.0°F-2.8°C 84% 0.9 mph W1.4 kmh W 3.1 mph5.0 kmh 29.56 in1001.0 mb 0.00 in0.0 mm 0.00 in/hr0.0 mm/hr 0.01 in0.3 mm
04:15 PM 30.7°F-0.7°C 26.5°F-3.1°C 84% 0.6 mph NW1.0 kmh NW 4.5 mph7.2 kmh 29.55 in1000.7 mb 0.00 in0.0 mm 0.00 in/hr0.0 mm/hr 0.01 in0.3 mm
04:45 PM 30.9°F-0.6°C 27.0°F-2.8°C 85% 1.1 mph ENE1.8 kmh ENE 3.8 mph6.1 kmh 29.56 in1001.0 mb 0.00 in0.0 mm 0.00 in/hr0.0 mm/hr 0.01 in0.3 mm
05:00 PM 30.9°F-0.6°C 26.7°F-2.9°C 84% 1.2 mph W1.9 kmh W 4.5 mph7.2 kmh 29.57 in1001.4 mb 0.01 in0.3 mm 0.01 in/hr0.3 mm/hr 0.01 in0.3 mm
05:15 PM 30.6°F-0.8°C 26.3°F-3.2°C 84% 0.5 mph N0.8 kmh N 3.1 mph5.0 kmh 29.57 in1001.4 mb 0.01 in0.3 mm 0.00 in/hr0.0 mm/hr 0.01 in0.3 mm
05:30 PM 30.2°F-1.0°C 26.0°F-3.3°C 84% 1.2 mph WNW1.9 kmh WNW 3.8 mph6.1 kmh 29.57 in1001.4 mb 0.01 in0.3 mm 0.00 in/hr0.0 mm/hr 0.01 in0.3 mm
05:45 PM 30.2°F-1.0°C 26.0°F-3.3°C 84% 2.2 mph NNW3.5 kmh NNW 6.0 mph9.7 kmh 29.58 in1001.7 mb 0.01 in0.3 mm 0.00 in/hr0.0 mm/hr 0.01 in0.3 mm
06:00 PM 30.2°F-1.0°C 26.0°F-3.3°C 84% 1.4 mph NNW2.3 kmh NNW 4.5 mph7.2 kmh 29.58 in1001.7 mb 0.00 in0.0 mm 0.00 in/hr0.0 mm/hr 0.01 in0.3 mm
06:15 PM 30.2°F-1.0°C 25.7°F-3.5°C 83% 1.1 mph NW1.8 kmh NW 5.4 mph8.7 kmh 29.59 in1002.0 mb 0.00 in0.0 mm 0.00 in/hr0.0 mm/hr 0.01 in0.3 mm
06:30 PM 30.2°F-1.0°C 25.7°F-3.5°C 83% 1.4 mph WNW2.3 kmh WNW 5.4 mph8.7 kmh 29.59 in1002.0 mb 0.00 in0.0 mm 0.00 in/hr0.0 mm/hr 0.01 in0.3 mm
06:45 PM 30.0°F-1.1°C 25.5°F-3.6°C 83% 2.1 mph N3.4 kmh N 7.6 mph12.2 kmh 29.61 in1002.7 mb 0.00 in0.0 mm 0.00 in/hr0.0 mm/hr 0.01 in0.3 mm
07:00 PM 28.9°F-1.7°C 24.4°F-4.2°C 83% 3.4 mph NW5.5 kmh NW 12.1 mph19.5 kmh 29.62 in1003.0 mb 0.00 in0.0 mm 0.00 in/hr0.0 mm/hr 0.01 in0.3 mm
07:15 PM 27.7°F-2.4°C 21.1°F-6.1°C 76% 3.7 mph NNW6.0 kmh NNW 8.3 mph13.4 kmh 29.63 in1003.4 mb 0.00 in0.0 mm 0.00 in/hr0.0 mm/hr 0.01 in0.3 mm
07:30 PM 26.4°F-3.1°C 18.0°F-7.8°C 70% 4.9 mph N7.9 kmh N 10.7 mph17.2 kmh 29.64 in1003.7 mb 0.00 in0.0 mm 0.00 in/hr0.0 mm/hr 0.01 in0.3 mm
07:45 PM 26.1°F-3.3°C 17.3°F-8.2°C 69% 3.9 mph NW6.3 kmh NW 9.8 mph15.8 kmh 29.65 in1004.1 mb 0.00 in0.0 mm 0.00 in/hr0.0 mm/hr 0.01 in0.3 mm
08:00 PM 25.7°F-3.5°C 16.6°F-8.6°C 68% 3.2 mph NW5.1 kmh NW 9.2 mph14.8 kmh 29.66 in1004.4 mb 0.00 in0.0 mm 0.00 in/hr0.0 mm/hr 0.01 in0.3 mm
08:15 PM 24.3°F-4.3°C 13.2°F-10.4°C 62% 6.1 mph NNW9.8 kmh NNW 16.8 mph27.0 kmh 29.67 in1004.7 mb 0.00 in0.0 mm 0.00 in/hr0.0 mm/hr 0.01 in0.3 mm
08:30 PM 23.5°F-4.7°C 12.1°F-11.1°C 61% 4.0 mph NW6.4 kmh NW 13.0 mph20.9 kmh 29.69 in1005.4 mb 0.00 in0.0 mm 0.00 in/hr0.0 mm/hr 0.01 in0.3 mm
08:45 PM 22.8°F-5.1°C 11.4°F-11.4°C 61% 2.1 mph NW3.4 kmh NW 8.3 mph13.4 kmh 29.69 in1005.4 mb 0.00 in0.0 mm 0.00 in/hr0.0 mm/hr 0.01 in0.3 mm
09:00 PM 22.1°F-5.5°C 10.4°F-12.0°C 60% 4.0 mph NW6.4 kmh NW 10.7 mph17.2 kmh 29.71 in1006.1 mb 0.00 in0.0 mm 0.00 in/hr0.0 mm/hr 0.01 in0.3 mm
09:15 PM 21.2°F-6.0°C 8.8°F-12.9°C 58% 3.7 mph NNW6.0 kmh NNW 9.8 mph15.8 kmh 29.72 in1006.4 mb 0.00 in0.0 mm 0.00 in/hr0.0 mm/hr 0.01 in0.3 mm
09:30 PM 20.7°F-6.3°C 8.7°F-12.9°C 59% 2.7 mph W4.3 kmh W 9.2 mph14.8 kmh 29.73 in1006.8 mb 0.00 in0.0 mm 0.00 in/hr0.0 mm/hr 0.01 in0.3 mm
09:45 PM 19.8°F-6.8°C 6.7°F-14.1°C 56% 3.3 mph NW5.3 kmh NW 13.0 mph20.9 kmh 29.74 in1007.1 mb 0.00 in0.0 mm 0.00 in/hr0.0 mm/hr 0.01 in0.3 mm
10:00 PM 19.2°F-7.1°C 4.1°F-15.5°C 51% 3.3 mph WNW5.3 kmh WNW 9.8 mph15.8 kmh 29.76 in1007.8 mb 0.00 in0.0 mm 0.00 in/hr0.0 mm/hr 0.01 in0.3 mm
10:15 PM 18.7°F-7.4°C 3.6°F-15.8°C 51% 5.7 mph WNW9.2 kmh WNW 16.8 mph27.0 kmh 29.76 in1007.8 mb 0.00 in0.0 mm 0.00 in/hr0.0 mm/hr 0.01 in0.3 mm
10:30 PM 17.8°F-7.9°C 2.4°F-16.4°C 50% 5.4 mph NNW8.7 kmh NNW 17.4 mph28.0 kmh 29.77 in1008.1 mb 0.00 in0.0 mm 0.00 in/hr0.0 mm/hr 0.01 in0.3 mm
10:45 PM 17.4°F-8.1°C 1.6°F-16.9°C 49% 3.3 mph W5.3 kmh W 9.2 mph14.8 kmh 29.78 in1008.5 mb 0.00 in0.0 mm 0.00 in/hr0.0 mm/hr 0.01 in0.3 mm
11:00 PM 17.2°F-8.2°C 1.4°F-17.0°C 49% 2.7 mph E4.3 kmh E 9.2 mph14.8 kmh 29.78 in1008.5 mb 0.00 in0.0 mm 0.00 in/hr0.0 mm/hr 0.01 in0.3 mm
11:15 PM 17.2°F-8.2°C 1.4°F-17.0°C 49% 2.6 mph NW4.2 kmh NW 7.6 mph12.2 kmh 29.78 in1008.5 mb 0.00 in0.0 mm 0.00 in/hr0.0 mm/hr 0.01 in0.3 mm
11:30 PM 16.9°F-8.4°C 0.7°F-17.4°C 48% 5.7 mph WSW9.2 kmh WSW 16.8 mph27.0 kmh 29.79 in1008.8 mb 0.00 in0.0 mm 0.00 in/hr0.0 mm/hr 0.01 in0.3 mm
11:45 PM 16.9°F-8.4°C 0.7°F-17.4°C 48% 2.9 mph N4.7 kmh N 10.7 mph17.2 kmh 29.78 in1008.5 mb 0.00 in0.0 mm 0.00 in/hr0.0 mm/hr 0.01 in0.3 mm